Chorlton cum Hardy, United Kingdom
Current Conditions -  °F | °C
As of 1:50 PM on Saturday 25 Oct 2014 (Local Time) from EGCC Reporting Station
Rain Showers Rain Showers  
Wind Chill: 55°   Ceiling: 3000
Heat Index: 55°   Visibility: 6mi
Dew Point: 50°   Wind: 13mph
Humidity: 82%   Direction: 210°SSW
Pressure: 29.94"   Gusts: NA
Location:  53.44°N, 2.26°W
Report Text: EGCC 251250Z 21011KT 9999 VCSH FEW025 BKN030 13/10 Q1014 NOSIG
Loading
Personal Weather Stations






























Interactive Weather Map
Tropical Storm Tracking
New forecast layout! Learn more

10-Day Weather Forecast

Advertisements
Track Severe Weather on mobile